createdAt,value
2023-02-03T00:01:56.737Z,84.50
2023-02-03T00:04:58.923Z,84.60
2023-02-03T00:08:01.555Z,84.60
2023-02-03T00:11:03.837Z,84.60
2023-02-03T00:14:08.063Z,84.50
2023-02-03T00:17:10.240Z,84.50
2023-02-03T00:20:12.534Z,84.60
2023-02-03T00:23:15.005Z,84.40
2023-02-03T00:26:18.210Z,84.50
2023-02-03T00:29:25.101Z,84.30
2023-02-03T00:32:27.567Z,84.30
2023-02-03T00:35:29.925Z,84.30
2023-02-03T00:38:33.749Z,84.40
2023-02-03T00:41:35.928Z,84.30
2023-02-03T00:44:38.049Z,84.40
2023-02-03T00:47:40.143Z,84.50
2023-02-03T00:50:42.313Z,84.40
2023-02-03T00:53:44.406Z,84.40
2023-02-03T00:56:46.499Z,84.50
2023-02-03T00:59:48.617Z,84.50
2023-02-03T01:02:50.751Z,84.50
2023-02-03T01:05:52.879Z,84.50
2023-02-03T01:08:55.450Z,84.40
2023-02-03T01:11:57.619Z,84.40
2023-02-03T01:14:59.824Z,84.40
2023-02-03T01:18:02.066Z,84.30
2023-02-03T01:21:09.010Z,84.30
2023-02-03T01:24:11.324Z,84.30
2023-02-03T01:27:14.644Z,84.30
2023-02-03T01:30:17.080Z,84.40
2023-02-03T01:33:19.226Z,84.20
2023-02-03T01:36:24.536Z,84.30
2023-02-03T01:39:27.423Z,84.30
2023-02-03T01:42:33.596Z,84.30
2023-02-03T01:45:35.788Z,84.30
2023-02-03T01:48:37.958Z,84.30
2023-02-03T01:51:42.383Z,84.30
2023-02-03T01:54:47.664Z,84.40
2023-02-03T01:57:58.974Z,84.30
2023-02-03T02:01:01.431Z,84.40
2023-02-03T02:04:06.675Z,84.30
2023-02-03T02:07:10.355Z,84.40
2023-02-03T02:10:14.839Z,84.40
2023-02-03T02:13:19.202Z,84.40
2023-02-03T02:16:24.821Z,84.40
2023-02-03T02:19:45.817Z,85.00
2023-02-03T02:23:21.642Z,84.30
2023-02-03T02:26:51.437Z,84.30
2023-02-03T02:30:08.661Z,84.40
2023-02-03T02:33:28.791Z,84.30
2023-02-03T02:36:43.194Z,84.20
2023-02-03T02:40:00.657Z,84.20
2023-02-03T02:43:39.841Z,84.10
2023-02-03T02:46:52.816Z,84.10
2023-02-03T02:50:09.048Z,83.90
2023-02-03T02:53:13.779Z,83.90
2023-02-03T02:56:19.712Z,83.90
2023-02-03T02:59:23.271Z,83.90
2023-02-03T03:02:36.357Z,83.80
2023-02-03T03:05:41.070Z,83.80
2023-02-03T03:08:48.172Z,83.70
2023-02-03T03:11:56.374Z,83.70
2023-02-03T03:15:03.730Z,83.70
2023-02-03T03:18:39.085Z,83.70
2023-02-03T03:21:47.101Z,83.70
2023-02-03T03:24:52.870Z,83.70
2023-02-03T03:28:00.827Z,83.70
2023-02-03T03:31:03.283Z,83.70
2023-02-03T03:34:05.577Z,83.60
2023-02-03T03:37:07.708Z,83.70
2023-02-03T03:40:21.092Z,83.50
2023-02-03T03:43:29.854Z,83.40
2023-02-03T03:46:41.625Z,83.30
2023-02-03T03:49:47.038Z,83.30
2023-02-03T03:52:50.871Z,83.20
2023-02-03T03:55:55.010Z,83.20
2023-02-03T03:58:59.759Z,83.10
2023-02-03T04:02:04.942Z,83.10
2023-02-03T04:05:08.633Z,83.00
2023-02-03T04:08:10.989Z,83.00
2023-02-03T04:11:33.127Z,83.00
2023-02-03T04:14:39.093Z,83.00
2023-02-03T04:17:41.277Z,82.90
2023-02-03T04:20:43.952Z,83.00
2023-02-03T04:23:46.235Z,82.90
2023-02-03T04:26:48.429Z,83.00
2023-02-03T04:29:50.847Z,82.90
2023-02-03T04:32:53.716Z,82.90
2023-02-03T04:35:56.008Z,83.00
2023-02-03T04:38:58.242Z,83.00
2023-02-03T04:42:00.377Z,83.00
2023-02-03T04:45:02.616Z,83.00
2023-02-03T04:48:05.034Z,83.00
2023-02-03T04:51:09.639Z,83.10
2023-02-03T04:54:12.137Z,83.00
2023-02-03T04:57:14.260Z,83.10
2023-02-03T05:00:16.563Z,83.10
2023-02-03T05:03:18.827Z,83.40
2023-02-03T05:06:29.082Z,83.00
2023-02-03T05:09:31.411Z,83.00
2023-02-03T05:12:33.623Z,82.90
2023-02-03T05:15:35.834Z,82.90
2023-02-03T05:18:37.999Z,82.70
2023-02-03T05:21:40.299Z,82.70
2023-02-03T05:24:42.407Z,82.60
2023-02-03T05:27:44.604Z,82.60
2023-02-03T05:30:46.952Z,82.50
2023-02-03T05:33:49.079Z,82.40
2023-02-03T05:36:51.253Z,82.50
2023-02-03T05:39:53.452Z,82.40
2023-02-03T05:42:55.779Z,82.40
2023-02-03T05:46:01.878Z,82.30
2023-02-03T05:49:04.168Z,82.30
2023-02-03T05:52:06.249Z,82.20
2023-02-03T05:55:08.565Z,81.80
2023-02-03T05:58:10.725Z,81.60
2023-02-03T06:01:12.869Z,81.90
2023-02-03T06:04:15.118Z,81.10
2023-02-03T06:07:17.376Z,81.00
2023-02-03T06:10:19.545Z,80.70
2023-02-03T06:13:21.697Z,80.70
2023-02-03T06:16:25.086Z,80.60
2023-02-03T06:19:27.300Z,80.70
2023-02-03T06:22:29.515Z,80.50
2023-02-03T06:25:32.807Z,80.50
2023-02-03T06:28:35.581Z,80.50
2023-02-03T06:31:37.869Z,80.50
2023-02-03T06:34:40.441Z,80.50
2023-02-03T06:37:42.563Z,80.60
2023-02-03T06:40:47.750Z,80.60
2023-02-03T06:43:49.984Z,80.60
2023-02-03T06:46:52.398Z,80.60
2023-02-03T06:49:54.598Z,80.50
2023-02-03T06:52:56.752Z,80.50
2023-02-03T06:55:58.932Z,80.60
2023-02-03T06:59:01.145Z,80.50
2023-02-03T07:02:03.291Z,80.60
2023-02-03T07:05:06.089Z,80.60
2023-02-03T07:08:08.278Z,80.70
2023-02-03T07:11:11.124Z,80.60
2023-02-03T07:14:13.257Z,80.70
2023-02-03T07:17:15.319Z,80.70
2023-02-03T07:20:17.630Z,80.80
2023-02-03T07:23:20.122Z,81.60
2023-02-03T07:26:23.228Z,81.00
2023-02-03T07:29:25.306Z,81.10
2023-02-03T07:32:27.558Z,81.20
2023-02-03T07:35:29.690Z,81.40
2023-02-03T07:38:32.259Z,81.40
2023-02-03T07:41:34.462Z,81.60
2023-02-03T07:44:36.727Z,81.60
2023-02-03T07:47:40.022Z,81.70
2023-02-03T07:50:42.126Z,81.80
2023-02-03T07:53:44.231Z,81.90
2023-02-03T07:56:46.345Z,82.00
2023-02-03T07:59:48.506Z,82.10
2023-02-03T08:02:50.898Z,82.20
2023-02-03T08:05:53.635Z,82.30
2023-02-03T08:08:55.789Z,82.40
2023-02-03T08:11:58.060Z,82.40
2023-02-03T08:15:00.253Z,82.50
2023-02-03T08:18:02.423Z,82.70
2023-02-03T08:21:05.041Z,82.80
2023-02-03T08:24:07.356Z,82.90
2023-02-03T08:27:09.491Z,82.90
2023-02-03T08:30:14.131Z,83.00
2023-02-03T08:33:16.286Z,83.10
2023-02-03T08:36:18.451Z,83.30
2023-02-03T08:39:20.628Z,83.40
2023-02-03T08:42:22.778Z,83.50
2023-02-03T08:45:24.980Z,83.60
2023-02-03T08:48:27.150Z,83.70
2023-02-03T08:51:30.142Z,83.70
2023-02-03T08:54:32.753Z,83.80
2023-02-03T08:57:38.358Z,84.00
2023-02-03T09:00:40.610Z,84.10
2023-02-03T09:03:43.016Z,84.20
2023-02-03T09:06:48.480Z,84.20
2023-02-03T09:09:50.755Z,84.30
2023-02-03T09:12:52.961Z,84.40
2023-02-03T09:15:55.223Z,84.50
2023-02-03T09:18:57.347Z,84.70
2023-02-03T09:21:59.991Z,84.70
2023-02-03T09:25:02.521Z,84.90
2023-02-03T09:28:05.061Z,85.00
2023-02-03T09:31:09.991Z,85.20
2023-02-03T09:34:12.232Z,85.20
2023-02-03T09:37:14.563Z,85.30
2023-02-03T09:40:26.312Z,85.40
2023-02-03T09:43:46.648Z,85.60
2023-02-03T09:47:01.818Z,85.60
2023-02-03T09:50:19.930Z,85.70
2023-02-03T09:53:30.945Z,85.80
2023-02-03T09:56:36.355Z,85.90
2023-02-03T09:59:40.899Z,85.90
2023-02-03T10:02:54.951Z,86.10
2023-02-03T10:06:51.601Z,86.10
2023-02-03T10:10:35.138Z,86.20
2023-02-03T10:13:52.129Z,86.20
2023-02-03T10:17:00.074Z,86.40
2023-02-03T10:20:23.396Z,86.50
2023-02-03T10:23:36.375Z,86.60
2023-02-03T10:26:40.764Z,86.70
2023-02-03T10:29:43.849Z,87.50
2023-02-03T10:32:46.229Z,86.80
2023-02-03T10:35:57.606Z,87.00
2023-02-03T10:39:27.506Z,86.90
2023-02-03T10:42:51.412Z,87.00
2023-02-03T10:45:53.595Z,87.20
2023-02-03T10:48:56.332Z,87.20
2023-02-03T10:52:05.077Z,87.20
2023-02-03T10:55:27.486Z,87.30
2023-02-03T10:58:31.432Z,87.30
2023-02-03T11:01:46.946Z,87.40
2023-02-03T11:05:08.192Z,87.50
2023-02-03T11:08:15.761Z,87.50
2023-02-03T11:11:22.365Z,87.60
2023-02-03T11:14:26.113Z,87.70
2023-02-03T11:17:30.517Z,87.70
2023-02-03T11:20:36.354Z,87.80
2023-02-03T11:23:47.697Z,87.80
2023-02-03T11:26:53.762Z,87.90
2023-02-03T11:30:30.429Z,87.90
2023-02-03T11:33:33.364Z,87.90
2023-02-03T11:36:36.011Z,88.00
2023-02-03T11:39:39.239Z,88.10
2023-02-03T11:43:03.856Z,88.10
2023-02-03T11:46:10.010Z,88.20
2023-02-03T11:49:50.839Z,88.20
2023-02-03T11:53:14.652Z,88.20
2023-02-03T11:56:49.943Z,88.40
2023-02-03T12:00:31.238Z,88.40
2023-02-03T12:03:33.376Z,88.40
2023-02-03T12:07:17.335Z,88.50
2023-02-03T12:10:31.373Z,88.60
2023-02-03T12:13:57.759Z,88.70
2023-02-03T12:17:06.157Z,88.70
2023-02-03T12:20:22.486Z,88.60
2023-02-03T12:23:27.340Z,88.70
2023-02-03T12:26:41.737Z,88.70
2023-02-03T12:29:48.329Z,88.80
2023-02-03T12:32:55.879Z,88.80
2023-02-03T12:36:21.161Z,88.90
2023-02-03T12:39:28.995Z,88.90
2023-02-03T12:42:34.003Z,89.00
2023-02-03T12:45:40.429Z,88.90
2023-02-03T12:48:50.758Z,89.00
2023-02-03T12:52:06.557Z,89.00
2023-02-03T12:55:37.430Z,88.70
2023-02-03T12:58:57.608Z,88.90
2023-02-03T13:02:13.965Z,88.90
2023-02-03T13:05:32.897Z,89.00
2023-02-03T13:08:43.471Z,89.00
2023-02-03T13:12:04.514Z,89.80
2023-02-03T13:15:34.364Z,89.10
2023-02-03T13:18:40.295Z,89.10
2023-02-03T13:21:42.540Z,89.10
2023-02-03T13:24:52.713Z,89.10
2023-02-03T13:28:03.997Z,89.20
2023-02-03T13:31:09.524Z,89.20
2023-02-03T13:34:17.464Z,89.20
2023-02-03T13:37:38.369Z,89.30
2023-02-03T13:41:19.602Z,89.20
2023-02-03T13:44:29.623Z,89.40
2023-02-03T13:47:33.057Z,89.50
2023-02-03T13:50:37.285Z,89.60
2023-02-03T13:53:41.419Z,90.10
2023-02-03T13:56:59.937Z,89.60
2023-02-03T14:00:05.922Z,89.70
2023-02-03T14:03:18.817Z,89.80
2023-02-03T14:06:45.696Z,89.80
2023-02-03T14:09:48.445Z,89.70
2023-02-03T14:12:50.625Z,89.80
2023-02-03T14:16:23.932Z,89.70
2023-02-03T14:19:26.184Z,89.80
2023-02-03T14:22:29.493Z,89.80
2023-02-03T14:25:52.596Z,89.80
2023-02-03T14:28:55.041Z,89.80
2023-02-03T14:32:06.576Z,89.90
2023-02-03T14:35:18.544Z,89.90
2023-02-03T14:38:21.936Z,90.00
2023-02-03T14:41:33.746Z,89.90
2023-02-03T14:44:52.658Z,90.00
2023-02-03T14:48:30.021Z,90.00
2023-02-03T14:52:02.469Z,90.00
2023-02-03T14:55:24.853Z,90.00
2023-02-03T14:58:43.139Z,90.00
2023-02-03T15:01:45.306Z,90.10
2023-02-03T15:04:50.461Z,90.00
2023-02-03T15:07:52.723Z,90.00
2023-02-03T15:10:55.000Z,90.00
2023-02-03T15:14:24.568Z,90.00
2023-02-03T15:17:28.999Z,90.10
2023-02-03T15:20:41.589Z,90.10
2023-02-03T15:23:48.360Z,90.00
2023-02-03T15:26:57.092Z,90.10
2023-02-03T15:30:14.187Z,90.00
2023-02-03T15:33:21.431Z,90.10
2023-02-03T15:36:27.853Z,90.10
2023-02-03T15:39:46.406Z,90.10
2023-02-03T15:42:55.049Z,90.10
2023-02-03T15:46:00.991Z,90.10
2023-02-03T15:49:11.692Z,90.10
2023-02-03T15:52:23.294Z,90.10
2023-02-03T15:55:43.941Z,90.20
2023-02-03T15:58:46.603Z,90.10
2023-02-03T16:01:48.932Z,90.20
2023-02-03T16:04:51.301Z,90.10
2023-02-03T16:07:53.669Z,90.20
2023-02-03T16:10:56.188Z,90.20
2023-02-03T16:14:03.808Z,90.30
2023-02-03T16:17:07.052Z,90.70
2023-02-03T16:20:11.963Z,90.90
2023-02-03T16:23:24.019Z,91.00
2023-02-03T16:26:28.830Z,91.20
2023-02-03T16:29:55.250Z,91.30
2023-02-03T16:33:29.648Z,91.50
2023-02-03T16:36:50.496Z,91.60
2023-02-03T16:40:11.288Z,91.60
2023-02-03T16:43:33.995Z,91.60
2023-02-03T16:46:55.938Z,91.60
2023-02-03T16:50:21.542Z,91.60
2023-02-03T16:53:31.445Z,91.60
2023-02-03T16:56:33.698Z,91.50
2023-02-03T16:59:35.942Z,91.50
2023-02-03T17:02:38.176Z,91.50
2023-02-03T17:05:43.019Z,91.50
2023-02-03T17:08:45.142Z,91.50
2023-02-03T17:11:47.560Z,91.50
2023-02-03T17:14:49.622Z,91.40
2023-02-03T17:17:51.732Z,91.40
2023-02-03T17:20:53.993Z,91.40
2023-02-03T17:23:57.589Z,91.40
2023-02-03T17:26:59.717Z,91.40
2023-02-03T17:30:02.588Z,91.30
2023-02-03T17:33:13.052Z,91.30
2023-02-03T17:36:17.437Z,91.30
2023-02-03T17:55:41.026Z,91.10
2023-02-03T17:58:43.501Z,91.00
2023-02-03T18:01:46.970Z,91.00
2023-02-03T18:04:49.149Z,91.00
2023-02-03T18:07:51.294Z,91.00
2023-02-03T18:10:53.451Z,91.00
2023-02-03T18:13:56.316Z,91.00
2023-02-03T18:16:58.509Z,91.00
2023-02-03T18:20:01.557Z,91.00
2023-02-03T18:23:03.994Z,90.90
2023-02-03T18:26:08.218Z,91.00
2023-02-03T18:29:12.743Z,90.90
2023-02-03T18:32:16.344Z,90.80
2023-02-03T18:35:18.850Z,90.90
2023-02-03T18:38:21.153Z,90.80
2023-02-03T18:41:25.349Z,90.80
2023-02-03T18:44:27.721Z,90.80
2023-02-03T18:47:30.231Z,90.80
2023-02-03T18:50:32.751Z,90.80
2023-02-03T18:53:36.145Z,90.80
2023-02-03T18:56:38.467Z,90.80
2023-02-03T18:59:40.834Z,90.70
2023-02-03T19:02:43.075Z,90.70
2023-02-03T19:05:45.264Z,90.70
2023-02-03T19:08:47.618Z,90.70
2023-02-03T19:11:49.953Z,90.70
2023-02-03T19:14:52.529Z,90.70
2023-02-03T19:17:54.789Z,90.80
2023-02-03T19:20:56.897Z,90.70
2023-02-03T19:23:59.102Z,90.70
2023-02-03T19:27:01.285Z,90.80
2023-02-03T19:30:04.394Z,90.70
2023-02-03T19:33:06.560Z,90.80
2023-02-03T19:36:09.343Z,90.70
2023-02-03T19:39:11.540Z,90.70
2023-02-03T19:42:13.621Z,90.70
2023-02-03T19:45:15.981Z,90.70
2023-02-03T19:48:18.497Z,90.70
2023-02-03T19:51:20.598Z,90.70
2023-02-03T19:54:22.723Z,90.70
2023-02-03T19:57:24.906Z,90.70
2023-02-03T20:00:28.367Z,90.70
2023-02-03T20:03:30.671Z,90.70
2023-02-03T20:06:32.886Z,90.70
2023-02-03T20:09:35.052Z,90.60
2023-02-03T20:12:37.188Z,90.70
2023-02-03T20:15:39.598Z,90.60
2023-02-03T20:18:41.712Z,90.60
2023-02-03T20:21:43.948Z,90.60
2023-02-03T20:24:46.056Z,90.60
2023-02-03T20:27:48.283Z,90.60
2023-02-03T20:30:52.314Z,90.60
2023-02-03T20:33:54.569Z,90.60
2023-02-03T20:36:58.571Z,90.70
2023-02-03T20:40:00.825Z,90.70
2023-02-03T20:43:23.670Z,90.70
2023-02-03T20:46:26.011Z,90.60
2023-02-03T20:49:28.255Z,90.60
2023-02-03T20:52:30.392Z,90.70
2023-02-03T20:55:36.263Z,90.60
2023-02-03T20:58:40.268Z,90.60
2023-02-03T21:01:42.514Z,90.60
2023-02-03T21:04:57.681Z,90.60
2023-02-03T21:08:00.096Z,90.60
2023-02-03T21:11:03.317Z,90.60
2023-02-03T21:14:26.023Z,90.60
2023-02-03T21:17:28.442Z,90.50
2023-02-03T21:20:32.528Z,90.50
2023-02-03T21:23:46.840Z,90.50
2023-02-03T21:26:49.771Z,90.60
2023-02-03T21:29:55.899Z,90.50
2023-02-03T21:33:01.651Z,90.50
2023-02-03T21:36:04.047Z,90.50
2023-02-03T21:39:24.260Z,90.50
2023-02-03T21:42:45.596Z,90.50
2023-02-03T21:45:49.161Z,90.50
2023-02-03T21:48:53.648Z,90.50
2023-02-03T21:51:55.869Z,90.50
2023-02-03T21:54:58.062Z,90.50
2023-02-03T21:58:17.146Z,90.50
2023-02-03T22:01:23.829Z,90.50
2023-02-03T22:04:30.686Z,90.50
2023-02-03T22:07:32.856Z,90.50
2023-02-03T22:10:35.546Z,90.50
2023-02-03T22:13:38.081Z,90.50
2023-02-03T22:16:40.789Z,90.50
2023-02-03T22:19:42.965Z,90.50
2023-02-03T22:22:45.166Z,90.50
2023-02-03T22:25:47.988Z,90.50
2023-02-03T22:28:50.154Z,90.50
2023-02-03T22:31:52.434Z,90.50
2023-02-03T22:34:54.698Z,90.50
2023-02-03T22:37:57.354Z,90.50
2023-02-03T22:41:00.061Z,90.50
2023-02-03T22:44:03.313Z,90.50
2023-02-03T22:47:05.456Z,90.50
2023-02-03T22:50:09.765Z,90.60
2023-02-03T22:53:11.959Z,90.50
2023-02-03T22:56:14.185Z,90.50
2023-02-03T22:59:16.384Z,90.50
2023-02-03T23:02:18.582Z,90.50
2023-02-03T23:05:21.630Z,90.50
2023-02-03T23:08:23.866Z,90.50
2023-02-03T23:11:26.058Z,90.50
2023-02-03T23:14:28.346Z,90.50
2023-02-03T23:17:30.472Z,90.50
2023-02-03T23:20:33.286Z,90.50
2023-02-03T23:23:35.636Z,90.50
2023-02-03T23:26:37.880Z,90.50
2023-02-03T23:29:40.148Z,90.50
2023-02-03T23:32:42.524Z,90.50
2023-02-03T23:35:47.645Z,90.50
2023-02-03T23:38:49.938Z,90.50
2023-02-03T23:41:52.070Z,90.50
2023-02-03T23:44:54.305Z,90.50
2023-02-03T23:47:56.503Z,90.50
2023-02-03T23:50:58.755Z,90.50
2023-02-03T23:54:00.928Z,90.50
2023-02-03T23:57:04.903Z,90.40
